Time;durP1;ratioP1;P1;durP2;ratioP2;P2;SDS_P1;SDS_P2;PMS_P1;PMS_P2;Temp;Humidity;BMP_temperature;BMP_pressure;BME280_temperature;BME280_humidity;BME280_pressure;Samples;Min_cycle;Max_cycle;Signal;HPM_P1;HPM_P2
2022/11/23 04:02:13;;;;;;;0.73;0.40;;;16.50;50.60;;;;;;5119804;23;45868;-62
2022/11/23 04:04:38;;;;;;;0.50;0.50;;;16.50;50.60;;;;;;4928496;28;45029;-61
2022/11/23 04:07:04;;;;;;;0.47;0.47;;;16.50;50.60;;;;;;4911300;28;44980;-63
2022/11/23 04:09:29;;;;;;;0.60;0.60;;;16.50;50.60;;;;;;4912071;28;44835;-62
2022/11/23 04:11:55;;;;;;;0.57;0.50;;;16.50;50.60;;;;;;4911977;28;46061;-63
2022/11/23 04:14:20;;;;;;;0.50;0.50;;;16.50;50.60;;;;;;4909573;28;45191;-61
2022/11/23 04:16:46;;;;;;;0.47;0.38;;;16.50;50.60;;;;;;4909289;28;45507;-61
2022/11/23 04:19:12;;;;;;;0.73;0.47;;;16.50;50.60;;;;;;4911862;28;45263;-60
2022/11/23 04:21:37;;;;;;;0.50;0.50;;;16.50;50.60;;;;;;4903225;28;46023;-62
2022/11/23 04:24:03;;;;;;;0.63;0.40;;;16.50;50.60;;;;;;4904395;28;44997;-63
2022/11/23 04:26:29;;;;;;;1.30;0.60;;;16.50;50.60;;;;;;4905410;28;44954;-63
2022/11/23 04:28:54;;;;;;;;;;;16.40;50.50;;;;;;4912052;28;45060;-62
2022/11/23 04:31:20;;;;;;;;;;;16.40;50.80;;;;;;4898637;28;46105;-61
2022/11/23 04:33:45;;;;;;;;;;;16.40;50.90;;;;;;4912357;28;45001;-60
2022/11/23 04:36:11;;;;;;;;;;;16.40;50.90;;;;;;4910509;28;45200;-61
2022/11/23 04:38:36;;;;;;;;;;;16.40;50.90;;;;;;4910075;28;45756;-62
2022/11/23 04:41:02;;;;;;;;;;;16.40;50.90;;;;;;4909578;28;45290;-59
2022/11/23 04:43:27;;;;;;;;;;;16.40;51.00;;;;;;4894204;28;45049;-62
2022/11/23 04:45:53;;;;;;;;;;;16.40;51.00;;;;;;4911806;28;45029;-62
2022/11/23 04:48:18;;;;;;;;;;;16.30;51.00;;;;;;4911390;28;45590;-61
2022/11/23 04:50:44;;;;;;;;;;;16.30;51.00;;;;;;4889454;28;46297;-63
2022/11/23 04:53:09;;;;;;;;;;;16.30;50.90;;;;;;4909055;28;45285;-61
2022/11/23 04:55:35;;;;;;;;;;;16.30;51.00;;;;;;4908063;28;45016;-61
2022/11/23 04:58:00;;;;;;;;;;;16.30;50.90;;;;;;4910532;28;45072;-62
2022/11/23 05:00:26;;;;;;;;;;;16.30;51.00;;;;;;4909517;28;46163;-64
2022/11/23 05:02:51;;;;;;;;;;;16.30;51.00;;;;;;4913236;28;44936;-59
2022/11/23 05:05:17;;;;;;;;;;;16.30;51.00;;;;;;4910211;28;45393;-60
2022/11/23 05:07:42;;;;;;;;;;;16.30;51.10;;;;;;4912687;28;45290;-62
2022/11/23 05:10:08;;;;;;;;;;;16.30;51.00;;;;;;4912554;28;45065;-62
2022/11/23 05:12:35;;;;;;;;;;;16.20;51.00;;;;;;4914156;28;44859;-62
2022/11/23 05:15:01;;;;;;;;;;;16.20;51.00;;;;;;4908658;28;44891;-61
2022/11/23 05:17:26;;;;;;;;;;;16.20;51.10;;;;;;4909995;28;45076;-64
2022/11/23 05:19:52;;;;;;;;;;;16.20;51.00;;;;;;4913059;28;45955;-62
2022/11/23 05:22:17;;;;;;;;;;;16.20;51.00;;;;;;4910615;28;44995;-62
2022/11/23 05:24:43;;;;;;;;;;;16.20;51.00;;;;;;4909011;28;45061;-59
2022/11/23 05:27:08;;;;;;;;;;;16.20;51.00;;;;;;4911754;28;45791;-62
2022/11/23 05:29:34;;;;;;;;;;;16.20;51.10;;;;;;4913048;28;46175;-63
2022/11/23 05:31:59;;;;;;;;;;;16.20;51.20;;;;;;4907403;28;46257;-61
2022/11/23 05:34:25;;;;;;;;;;;16.10;51.10;;;;;;4908284;28;46452;-62
2022/11/23 05:36:50;;;;;;;;;;;16.10;51.10;;;;;;4908846;28;45071;-61
2022/11/23 05:39:16;;;;;;;;;;;16.10;51.10;;;;;;4911256;28;46238;-61
2022/11/23 05:41:41;;;;;;;;;;;16.10;51.10;;;;;;4911472;28;45308;-61
2022/11/23 05:44:07;;;;;;;;;;;16.10;51.10;;;;;;4912435;28;45057;-63
2022/11/23 05:46:32;;;;;;;;;;;16.10;51.10;;;;;;4911134;28;45210;-58
2022/11/23 05:48:58;;;;;;;;;;;16.10;51.10;;;;;;4911991;28;46107;-63
2022/11/23 05:51:23;;;;;;;;;;;16.10;51.10;;;;;;4912800;28;45248;-60
2022/11/23 05:53:49;;;;;;;;;;;16.10;51.10;;;;;;4912023;28;45165;-61
2022/11/23 05:56:14;;;;;;;;;;;16.10;51.10;;;;;;4912092;28;44965;-62
2022/11/23 05:58:40;;;;;;;;;;;16.00;51.10;;;;;;4907851;28;46111;-64
2022/11/23 06:01:05;;;;;;;;;;;16.00;51.10;;;;;;4907928;28;45614;-63
2022/11/23 06:03:31;;;;;;;;;;;16.00;51.10;;;;;;4908858;28;45052;-60
2022/11/23 06:05:56;;;;;;;;;;;16.00;51.10;;;;;;4910734;28;45177;-63
2022/11/23 06:08:22;;;;;;;;;;;16.00;51.10;;;;;;4912262;28;46101;-61
2022/11/23 06:10:47;;;;;;;;;;;16.00;51.10;;;;;;4909787;28;45147;-62
2022/11/23 06:13:13;;;;;;;;;;;16.00;51.10;;;;;;4910926;28;45372;-61
2022/11/23 06:15:38;;;;;;;;;;;16.00;51.10;;;;;;4911858;28;45022;-61
2022/11/23 06:18:04;;;;;;;;;;;16.00;51.10;;;;;;4909198;28;46394;-60
2022/11/23 06:20:29;;;;;;;;;;;16.00;51.10;;;;;;4911590;28;45029;-58
2022/11/23 06:22:55;;;;;;;;;;;16.00;51.10;;;;;;4908013;28;45263;-59
2022/11/23 06:25:20;;;;;;;;;;;16.00;51.10;;;;;;4910325;28;45257;-59
2022/11/23 06:27:55;;;;;;;;;;;16.00;51.10;;;;;;4910725;28;45918;-60
2022/11/23 06:30:21;;;;;;;;;;;16.00;51.10;;;;;;4906680;28;44941;-60
2022/11/23 06:32:47;;;;;;;;;;;16.00;51.10;;;;;;4911651;28;45028;-61
2022/11/23 06:35:12;;;;;;;;;;;16.00;51.10;;;;;;4909856;28;45079;-61
2022/11/23 06:37:38;;;;;;;;;;;15.90;51.10;;;;;;4908161;28;46098;-58
2022/11/23 06:40:03;;;;;;;;;;;15.90;51.10;;;;;;4909487;28;45354;-60
2022/11/23 06:42:29;;;;;;;;;;;15.90;51.10;;;;;;4910067;28;45159;-59
2022/11/23 06:44:55;;;;;;;;;;;15.90;51.20;;;;;;4906845;28;45138;-57
2022/11/23 06:47:20;;;;;;;;;;;15.90;51.10;;;;;;4906377;28;45853;-58
2022/11/23 06:49:46;;;;;;;;;;;15.90;51.20;;;;;;4907588;28;44977;-59
2022/11/23 06:52:12;;;;;;;;;;;15.90;51.10;;;;;;4910158;28;45179;-58
2022/11/23 06:54:38;;;;;;;;;;;15.90;51.20;;;;;;4907474;28;45103;-60
2022/11/23 06:57:06;;;;;;;;;;;15.90;51.20;;;;;;4908913;28;45993;-60
2022/11/23 06:59:32;;;;;;;;;;;15.90;51.20;;;;;;4906776;28;45194;-60
2022/11/23 07:01:57;;;;;;;;;;;15.90;51.20;;;;;;4883189;29;45202;-61
2022/11/23 07:04:23;;;;;;;;;;;15.90;51.20;;;;;;4907022;28;45949;-62
2022/11/23 07:06:48;;;;;;;;;;;15.80;49.40;;;;;;4896364;29;46445;-63
2022/11/23 07:09:14;;;;;;;;;;;15.70;48.60;;;;;;4908841;28;45152;-61
2022/11/23 07:11:39;;;;;;;;;;;15.70;49.10;;;;;;4905560;28;45086;-65
2022/11/23 07:14:05;;;;;;;;;;;15.70;49.90;;;;;;4912859;28;45588;-59
2022/11/23 07:16:30;;;;;;;;;;;15.80;49.90;;;;;;4911984;28;45014;-63
2022/11/23 07:18:56;;;;;;;;;;;16.00;49.70;;;;;;4912457;28;45221;-61
2022/11/23 07:21:21;;;;;;;;;;;16.20;49.40;;;;;;4906492;28;44896;-65
2022/11/23 07:23:47;;;;;;;;;;;16.40;49.70;;;;;;4908889;28;44871;-63
2022/11/23 07:26:12;;;;;;;;;;;16.60;48.80;;;;;;4908320;28;45126;-63
2022/11/23 07:28:38;;;;;;;;;;;16.80;48.60;;;;;;4913250;28;44609;-62
2022/11/23 07:31:04;;;;;;;;;;;17.00;48.40;;;;;;4908741;28;45198;-62
2022/11/23 07:33:29;;;;;;;;;;;17.20;48.10;;;;;;4894229;29;45274;-64
2022/11/23 07:35:55;;;;;;;;;;;17.30;47.90;;;;;;4906478;28;45950;-59
2022/11/23 07:38:20;;;;;;;;;;;17.50;47.70;;;;;;4910735;28;44722;-64
2022/11/23 07:40:47;;;;;;;;;;;17.70;47.60;;;;;;4905644;28;44918;-61
2022/11/23 07:43:12;;;;;;;;;;;17.80;47.50;;;;;;4911874;28;45781;-61
2022/11/23 07:45:38;;;;;;;;;;;17.90;47.30;;;;;;4911419;28;45438;-62
2022/11/23 07:48:04;;;;;;;;;;;17.90;47.30;;;;;;4911828;28;44998;-65
2022/11/23 07:50:30;;;;;;;;;;;17.90;47.40;;;;;;4892372;28;44989;-66
2022/11/23 07:52:56;;;;;;;;;;;18.00;47.50;;;;;;4911682;28;45232;-62
2022/11/23 07:55:22;;;;;;;;;;;18.00;47.50;;;;;;4912877;28;46512;-65
2022/11/23 07:57:50;;;;;;;;;;;18.20;47.30;;;;;;4910989;28;44953;-63
2022/11/23 08:00:16;;;;;;;;;;;18.40;47.10;;;;;;4911275;28;45109;-65
2022/11/23 08:02:42;;;;;;;;;;;18.50;46.90;;;;;;4909795;28;45819;-63
2022/11/23 08:05:07;;;;;;;;;;;18.70;46.80;;;;;;4911350;28;45954;-66
2022/11/23 08:07:33;;;;;;;;;;;18.80;46.60;;;;;;4910624;28;45024;-61
2022/11/23 08:09:58;;;;;;;;;;;19.00;46.40;;;;;;4912315;28;45128;-62
2022/11/23 08:12:24;;;;;;;;;;;19.10;46.20;;;;;;4910669;28;45195;-65
2022/11/23 08:14:49;;;;;;;;;;;19.30;46.10;;;;;;4908457;28;45257;-63
2022/11/23 08:17:14;;;;;;;;;;;19.40;46.00;;;;;;4911640;28;44942;-66
2022/11/23 08:19:40;;;;;;;;;;;19.50;45.70;;;;;;4908591;28;45000;-59
2022/11/23 08:22:05;;;;;;;;;;;19.70;45.70;;;;;;4906695;28;45061;-63
2022/11/23 08:24:31;;;;;;;;;;;19.80;45.50;;;;;;4911013;28;46186;-62
2022/11/23 08:26:57;;;;;;;;;;;19.90;45.30;;;;;;4911200;28;45135;-62
2022/11/23 08:29:22;;;;;;;;;;;20.00;45.20;;;;;;4912057;28;45171;-60
2022/11/23 08:31:48;;;;;;;;;;;20.10;45.10;;;;;;4908020;28;45075;-64
2022/11/23 08:34:13;;;;;;;;;;;20.10;45.00;;;;;;4894363;28;46111;-66
2022/11/23 08:36:39;;;;;;;;;;;20.10;44.90;;;;;;4911226;28;45180;-64
2022/11/23 08:39:04;;;;;;;;;;;20.10;45.10;;;;;;4915319;29;45131;-60
2022/11/23 08:41:30;;;;;;;;;;;20.10;45.20;;;;;;4909433;28;44763;-61
2022/11/23 08:43:55;;;;;;;;;;;20.20;45.20;;;;;;4914295;28;46009;-65
2022/11/23 08:46:21;;;;;;;;;;;20.30;45.00;;;;;;4896202;28;45172;-64
2022/11/23 08:48:46;;;;;;;;;;;20.50;45.00;;;;;;4911939;28;44939;-63
2022/11/23 08:51:12;;;;;;;;;;;20.60;44.70;;;;;;4913327;28;45144;-61
2022/11/23 08:53:37;;;;;;;;;;;20.70;44.60;;;;;;4914226;28;45734;-62
2022/11/23 08:56:03;;;;;;;;;;;20.80;44.50;;;;;;4910853;28;45192;-62
2022/11/23 08:58:29;;;;;;;;;;;20.90;44.30;;;;;;4898845;28;45734;-62
2022/11/23 09:00:54;;;;;;;;;;;21.00;44.10;;;;;;4909650;28;45016;-63
2022/11/23 09:03:20;;;;;;;;;;;21.10;44.00;;;;;;4914648;28;45773;-62
2022/11/23 09:05:45;;;;;;;;;;;21.20;43.80;;;;;;4911293;28;44992;-61
2022/11/23 09:08:11;;;;;;;;;;;21.30;43.70;;;;;;4914710;28;45234;-62
2022/11/23 09:10:36;;;;;;;;;;;21.40;43.50;;;;;;4912749;28;44951;-65
2022/11/23 09:13:02;;;;;;;;;;;21.50;43.40;;;;;;4909604;28;45186;-64
2022/11/23 09:15:28;;;;;;;;;;;21.60;43.40;;;;;;4894352;28;45077;-65
2022/11/23 09:17:53;;;;;;;;;;;21.70;43.40;;;;;;4895106;28;45481;-64
2022/11/23 09:20:19;;;;;;;;;;;21.70;43.30;;;;;;4913277;28;45098;-62
2022/11/23 09:22:49;;;;;;;;;;;21.80;43.40;;;;;;4904699;28;45962;-59
2022/11/23 09:25:14;;;;;;;;;;;21.90;43.30;;;;;;4913599;28;44858;-63
2022/11/23 09:27:40;;;;;;;;;;;21.90;43.20;;;;;;4911257;28;44948;-65
2022/11/23 09:30:06;;;;;;;;;;;22.00;43.20;;;;;;4904130;28;45180;-63
2022/11/23 09:32:31;;;;;;;;;;;22.10;43.20;;;;;;4911992;28;46192;-63
2022/11/23 09:34:57;;;;;;;;;;;22.20;43.10;;;;;;4915393;28;45009;-62
2022/11/23 09:37:22;;;;;;;;;;;22.20;43.00;;;;;;4913416;28;44913;-67
2022/11/23 09:39:48;;;;;;;;;;;22.30;42.90;;;;;;4909653;28;45021;-64
2022/11/23 09:42:21;;;;;;;;;;;22.40;42.90;;;;;;4914006;28;46182;-61
2022/11/23 09:44:51;;;;;;;;;;;22.40;42.80;;;;;;4896674;29;45306;-65
2022/11/23 09:47:32;;;;;;;;;;;22.50;42.80;;;;;;4894598;29;44855;-63
2022/11/23 09:50:06;;;;;;;;;;;22.60;42.70;;;;;;4909995;28;45121;-59
2022/11/23 09:52:32;;;;;;;;;;;22.60;42.60;;;;;;4913040;28;46434;-60
2022/11/23 09:55:04;;;;;;;;;;;22.70;42.50;;;;;;4898031;28;45028;-63
2022/11/23 09:57:30;;;;;;;;;;;22.80;42.50;;;;;;4909211;28;44976;-62
2022/11/23 10:00:07;;;;;;;;;;;22.80;42.40;;;;;;4895832;28;45097;-59
2022/11/23 10:02:35;;;;;;;;;;;22.90;42.40;;;;;;4906793;28;46155;-64
2022/11/23 10:05:01;;;;;;;;;;;22.90;42.30;;;;;;4896829;28;45171;-62
2022/11/23 10:07:38;;;;;;;;;;;23.00;42.10;;;;;;4896107;29;45381;-62
2022/11/23 10:10:12;;;;;;;;;;;23.00;42.10;;;;;;4911698;28;45890;-62
2022/11/23 10:12:41;;;;;;;;;;;23.00;42.10;;;;;;4895058;28;45124;-61
2022/11/23 10:15:19;;;;;;;;;;;23.10;42.10;;;;;;4896777;28;45352;-65
2022/11/23 10:18:00;;;;;;;;;;;23.00;42.10;;;;;;4894198;28;44964;-64
2022/11/23 10:20:26;;;;;;;;;;;22.90;42.40;;;;;;4889006;29;45289;-61
2022/11/23 10:22:59;;;;;;;;;;;22.90;42.50;;;;;;4911909;28;46121;-60
2022/11/23 10:25:25;;;;;;;;;;;23.00;42.50;;;;;;4912167;28;45005;-62
2022/11/23 10:27:52;;;;;;;;;;;23.10;42.50;;;;;;4876110;28;45053;-63
2022/11/23 10:30:17;;;;;;;;;;;23.10;42.40;;;;;;4896594;28;45120;-63
2022/11/23 10:32:45;;;;;;;;;;;23.20;42.30;;;;;;4909447;28;45894;-64
2022/11/23 10:35:11;;;;;;;;;;;23.30;42.20;;;;;;4879976;28;45236;-67
2022/11/23 10:37:37;;;;;;;;;;;23.30;42.10;;;;;;4909949;28;44748;-64
2022/11/23 10:40:03;;;;;;;;;;;23.40;42.00;;;;;;4894017;28;45033;-65
2022/11/23 10:42:41;;;;;;;;;;;23.40;41.90;;;;;;4909337;28;46160;-62
2022/11/23 10:45:15;;;;;;;;;;;23.50;41.90;;;;;;4890387;28;45586;-64
2022/11/23 10:47:41;;;;;;;;;;;23.50;41.80;;;;;;4892120;28;45164;-65
2022/11/23 10:50:18;;;;;;;;;;;23.60;41.90;;;;;;4894857;28;44686;-65
2022/11/23 10:52:51;;;;;;;;;;;23.70;41.80;;;;;;4909273;28;46079;-59
2022/11/23 10:55:16;;;;;;;;;;;23.70;41.80;;;;;;4893847;29;44951;-64
2022/11/23 10:57:43;;;;;;;;;;;23.70;41.60;;;;;;4909164;28;45010;-63
2022/11/23 11:00:12;;;;;;;;;;;23.80;41.60;;;;;;4891317;28;45284;-67
2022/11/23 11:02:38;;;;;;;;;;;23.80;41.60;;;;;;4903263;28;46086;-64
2022/11/23 11:05:20;;;;;;;;;;;23.90;41.60;;;;;;4915174;28;44696;-59
2022/11/23 11:07:46;;;;;;;;;;;23.90;41.40;;;;;;4898358;28;45128;-60
2022/11/23 11:10:30;;;;;;;;;;;23.90;41.40;;;;;;4912829;28;45031;-64
2022/11/23 11:12:56;;;;;;;;;;;23.90;41.20;;;;;;4911464;28;45791;-61
2022/11/23 11:15:21;;;;;;;;;;;24.00;41.40;;;;;;4915670;28;44992;-66
2022/11/23 11:17:53;;;;;;;;;;;24.10;41.30;;;;;;4907402;28;44808;-59
2022/11/23 11:20:21;;;;;;;;;;;24.10;41.20;;;;;;4916013;28;45418;-60
2022/11/23 11:22:47;;;;;;;;;;;24.10;41.20;;;;;;4909310;28;45872;-62
2022/11/23 11:25:25;;;;;;;;;;;24.10;41.30;;;;;;4897539;28;44949;-61
2022/11/23 11:27:51;;;;;;;;;;;24.10;41.20;;;;;;4915344;28;44960;-62
2022/11/23 11:30:39;;;;;;;;;;;24.10;41.10;;;;;;4914534;28;45368;-63
2022/11/23 11:33:16;;;;;;;;;;;24.10;41.10;;;;;;4907287;28;45441;-63
2022/11/23 11:35:42;;;;;;;;;;;24.10;41.20;;;;;;4894979;28;45000;-61
2022/11/23 11:38:24;;;;;;;;;;;24.10;41.10;;;;;;4906137;29;45043;-63
2022/11/23 11:40:50;;;;;;;;;;;24.10;41.10;;;;;;4896346;28;45359;-64
2022/11/23 11:43:20;;;;;;;;;;;24.00;41.20;;;;;;4895431;28;46169;-58
2022/11/23 11:45:46;;;;;;;;;;;24.00;41.20;;;;;;4890157;28;45027;-64
2022/11/23 11:48:12;;;;;;;;;;;24.00;41.20;;;;;;4913235;28;45215;-61
2022/11/23 11:50:39;;;;;;;;;;;24.00;41.20;;;;;;4909954;28;45663;-60
2022/11/23 11:53:07;;;;;;;;;;;24.00;41.30;;;;;;4910391;28;46127;-62
2022/11/23 11:55:41;;;;;;;;;;;24.00;41.20;;;;;;4909595;28;45179;-60
2022/11/23 11:58:10;;;;;;;;;;;24.10;41.20;;;;;;4911352;28;45023;-58
2022/11/23 12:00:36;;;;;;;;;;;24.10;41.30;;;;;;4910215;28;44945;-59
2022/11/23 12:03:11;;;;;;;;;;;24.10;41.30;;;;;;4912191;28;46216;-61
2022/11/23 12:05:52;;;;;;;;;;;24.20;41.30;;;;;;4891678;28;45070;-61
2022/11/23 12:08:24;;;;;;;;;;;24.30;41.20;;;;;;4914398;28;44783;-60
2022/11/23 12:10:52;;;;;;;;;;;24.30;41.10;;;;;;4907399;28;44736;-58
2022/11/23 12:13:19;;;;;;;;;;;24.40;41.10;;;;;;4904342;28;45493;-67
2022/11/23 12:15:45;;;;;;;;;;;24.40;41.00;;;;;;4896095;28;44891;-60
2022/11/23 12:18:27;;;;;;;;;;;24.50;41.00;;;;;;4893659;28;44972;-59
2022/11/23 12:21:11;;;;;;;;;;;24.50;41.00;;;;;;4894953;29;45029;-61
2022/11/23 12:23:55;;;;;;;;;;;24.50;40.80;;;;;;4915410;28;45123;-63
2022/11/23 12:26:21;;;;;;;;;;;24.50;40.90;;;;;;4909725;28;44947;-60
2022/11/23 12:28:49;;;;;;;;;;;24.50;40.90;;;;;;4913128;28;44759;-63
2022/11/23 12:31:18;;;;;;;;;;;24.50;40.90;;;;;;4895963;28;44830;-63
2022/11/23 12:33:48;;;;;;;;;;;24.50;40.90;;;;;;4915666;28;46399;-62
2022/11/23 12:36:19;;;;;;;;;;;24.50;40.90;;;;;;4893947;28;45196;-64
2022/11/23 12:38:54;;;;;;;;;;;24.50;41.00;;;;;;4894047;28;45127;-64
2022/11/23 12:41:23;;;;;;;;;;;24.60;41.00;;;;;;4902899;28;44968;-62
2022/11/23 12:43:55;;;;;;;;;;;24.50;41.00;;;;;;4899897;28;45732;-63
2022/11/23 12:46:24;;;;;;;;;;;24.60;41.00;;;;;;4912784;28;44672;-61
2022/11/23 12:48:52;;;;;;;;;;;24.60;41.00;;;;;;4899617;28;45032;-65
2022/11/23 12:51:37;;;;;;;;;;;24.60;41.00;;;;;;4913749;28;44963;-64
2022/11/23 12:54:05;;;;;;;;;;;24.60;41.10;;;;;;4917854;28;45522;-62
2022/11/23 12:56:43;;;;;;;;;;;24.60;41.10;;;;;;4916113;28;44931;-65
2022/11/23 12:59:09;;;;;;;;;;;24.60;41.00;;;;;;4916681;28;44993;-62
2022/11/23 13:01:35;;;;;;;;;;;24.60;41.10;;;;;;4920005;28;45606;-64
2022/11/23 13:04:20;;;;;;;;;;;24.70;41.10;;;;;;4897309;28;46361;-62
2022/11/23 13:06:49;;;;;;;;;;;24.60;41.10;;;;;;4916587;28;44971;-62
2022/11/23 13:09:33;;;;;;;;;;;24.60;41.10;;;;;;4914927;28;44896;-60
2022/11/23 13:11:58;;;;;;;;;;;24.60;41.10;;;;;;4911841;28;45817;-63
2022/11/23 13:14:27;;;;;;;;;;;24.70;41.10;;;;;;4920433;28;45147;-63
2022/11/23 13:17:05;;;;;;;;;;;24.70;41.10;;;;;;4899323;28;45122;-58
2022/11/23 13:19:46;;;;;;;;;;;24.70;41.10;;;;;;4915413;28;45040;-60
2022/11/23 13:22:13;;;;;;;;;;;24.70;41.10;;;;;;4912061;28;45270;-61
2022/11/23 13:24:39;;;;;;;;;;;24.70;41.10;;;;;;4903807;28;45590;-62
2022/11/23 13:27:14;;;;;;;;;;;24.70;41.10;;;;;;4915927;28;44925;-62
2022/11/23 13:29:51;;;;;;;;;;;24.70;41.10;;;;;;4895802;28;45895;-62
2022/11/23 13:32:32;;;;;;;;;;;24.80;41.20;;;;;;4899729;28;45027;-58
2022/11/23 13:34:58;;;;;;;;;;;24.70;41.00;;;;;;4889515;28;45305;-63
2022/11/23 13:37:23;;;;;;;;;;;24.80;41.20;;;;;;4913381;28;44639;-61
2022/11/23 13:39:49;;;;;;;;;;;24.80;41.10;;;;;;4916676;28;45054;-63
2022/11/23 13:42:15;;;;;;;;;;;24.80;41.20;;;;;;4916004;28;45067;-59
2022/11/23 13:44:40;;;;;;;;;;;24.70;41.20;;;;;;4917614;28;45509;-63
2022/11/23 13:47:16;;;;;;;;;;;24.70;41.30;;;;;;4913305;28;45873;-62
2022/11/23 13:49:42;;;;;;;;;;;24.70;41.30;;;;;;4894636;28;44642;-62
2022/11/23 13:52:20;;;;;;;;;;;24.70;41.30;;;;;;4913401;28;44953;-61
2022/11/23 13:54:56;;;;;;;;;;;24.70;41.40;;;;;;4916556;28;45911;-61
2022/11/23 13:57:21;;;;;;;;;;;24.70;41.40;;;;;;4898148;29;45001;-63
2022/11/23 13:59:47;;;;;;;;;;;24.70;41.40;;;;;;4907426;28;45160;-58
2022/11/23 14:02:15;;;;;;;;;;;24.70;41.40;;;;;;4900396;28;45197;-61
2022/11/23 14:04:41;;;;;;;;;;;24.70;41.50;;;;;;4902374;29;47224;-62
2022/11/23 14:07:14;;;;;;;;;;;24.70;41.50;;;;;;4886350;29;45347;-63
2022/11/23 14:09:56;;;;;;;;;;;24.70;41.50;;;;;;4886221;28;45363;-62
2022/11/23 14:12:21;;;;;;;;;;;24.70;41.60;;;;;;4898866;28;45291;-61
2022/11/23 14:15:19;;;;;;;;;;;24.70;41.60;;;;;;4880643;29;47291;-63
2022/11/23 14:18:03;;;;;;;;;;;24.70;41.60;;;;;;4901007;29;45030;-62
2022/11/23 14:20:31;;;;;;;;;;;24.70;41.60;;;;;;4901497;28;45350;-59
2022/11/23 14:23:06;;;;;;;;;;;24.70;41.60;;;;;;4899930;28;45294;-59
2022/11/23 14:25:50;;;;;;;;;;;24.70;41.70;;;;;;4901527;29;46039;-63
2022/11/23 14:28:19;;;;;;;;;;;24.70;41.70;;;;;;4901764;28;45452;-61
2022/11/23 14:31:11;;;;;;;;;;;24.70;41.70;;;;;;4883310;28;45646;-61
2022/11/23 14:33:40;;;;;;;;;;;24.80;41.70;;;;;;4898293;29;44896;-61
2022/11/23 14:36:19;;;;;;;;;;;24.70;41.70;;;;;;4901230;29;46170;-61
2022/11/23 14:38:47;;;;;;;;;;;24.70;41.80;;;;;;4885983;29;45004;-60
2022/11/23 14:41:16;;;;;;;;;;;24.70;41.70;;;;;;4901892;28;45341;-63
2022/11/23 14:43:42;;;;;;;;;;;24.70;41.80;;;;;;4885231;29;44805;-59
2022/11/23 14:46:12;;;;;;;;;;;24.70;41.80;;;;;;4901975;29;47738;-62
2022/11/23 14:48:38;;;;;;;;;;;24.70;41.80;;;;;;4879817;28;45264;-59
2022/11/23 14:51:04;;;;;;;;;;;24.70;41.80;;;;;;4898569;28;46275;-61
2022/11/23 14:53:31;;;;;;;;;;;24.70;41.80;;;;;;4878170;29;46183;-61
2022/11/23 14:55:57;;;;;;;;;;;24.70;41.90;;;;;;4898533;28;46251;-61
2022/11/23 14:58:24;;;;;;;;;;;24.70;41.90;;;;;;4900423;29;45274;-62
2022/11/23 15:00:49;;;;;;;;;;;24.70;41.90;;;;;;4878835;29;45299;-64
2022/11/23 15:03:16;;;;;;;;;;;24.70;41.90;;;;;;4878965;28;44780;-62
2022/11/23 15:05:42;;;;;;;;;;;24.70;41.90;;;;;;4899906;29;46177;-61
2022/11/23 15:08:10;;;;;;;;;;;24.70;41.90;;;;;;4882249;29;44681;-62
2022/11/23 15:10:36;;;;;;;;;;;24.70;41.90;;;;;;4900378;29;45598;-63
2022/11/23 15:13:01;;;;;;;;;;;24.70;42.00;;;;;;4898789;28;44751;-60
2022/11/23 15:15:28;;;;;;;;;;;24.70;41.90;;;;;;4882470;29;46216;-61
2022/11/23 15:17:58;;;;;;;;;;;24.70;42.00;;;;;;4900584;28;45312;-59
2022/11/23 15:20:25;;;;;;;;;;;24.70;42.00;;;;;;4899192;28;44752;-62
2022/11/23 15:22:50;;;;;;;;;;;24.70;42.20;;;;;;4881229;29;45449;-58
2022/11/23 15:25:18;;;;;;;;;;;24.80;42.10;;;;;;4893740;28;46057;-62
2022/11/23 15:27:44;;;;;;;;;;;24.70;42.10;;;;;;4900526;28;44726;-61
2022/11/23 15:30:16;;;;;;;;;;;24.70;42.10;;;;;;4900572;29;45369;-61
2022/11/23 15:32:42;;;;;;;;;;;24.70;42.10;;;;;;4898088;28;45150;-62
2022/11/23 15:35:11;;;;;;;;;;;24.70;42.20;;;;;;4896967;28;45424;-62
2022/11/23 15:37:42;;;;;;;;;;;24.70;42.20;;;;;;4899079;28;45184;-62
2022/11/23 15:40:10;;;;;;;;;;;24.80;42.20;;;;;;4876648;28;45360;-62
2022/11/23 15:42:36;;;;;;;;;;;24.80;42.30;;;;;;4899969;29;45237;-60
2022/11/23 15:45:02;;;;;;;;;;;24.70;42.20;;;;;;4898159;28;45908;-62
2022/11/23 15:47:27;;;;;;;;;;;24.80;42.30;;;;;;4886256;29;45498;-58
2022/11/23 15:49:58;;;;;;;;;;;24.80;42.30;;;;;;4902311;29;45354;-59
2022/11/23 15:52:23;;;;;;;;;;;24.80;42.30;;;;;;4898029;29;46265;-58
2022/11/23 15:54:49;;;;;;;;;;;24.80;42.20;;;;;;4882852;29;45926;-60
2022/11/23 15:57:17;;;;;;;;;;;24.80;42.20;;;;;;4901736;28;44628;-63
2022/11/23 15:59:46;;;;;;;;;;;24.90;42.20;;;;;;4886150;29;45224;-59
2022/11/23 16:02:13;;;;;;;;;;;24.90;42.20;;;;;;4884861;29;44925;-62
2022/11/23 16:04:39;;;;;;;;;;;24.90;42.20;;;;;;4881932;28;45922;-62
2022/11/23 16:07:13;;;;;;;;;;;24.90;42.20;;;;;;4897689;28;45419;-62
2022/11/23 16:09:42;;;;;;;;;;;24.80;42.20;;;;;;4870126;29;44695;-61
2022/11/23 16:12:27;;;;;;;;;;;24.90;42.20;;;;;;4875290;28;44771;-64
2022/11/23 16:14:53;;;;;;;;;;;24.80;42.20;;;;;;4893855;28;46065;-62
2022/11/23 16:17:22;;;;;;;;;;;24.80;42.20;;;;;;4880320;28;45226;-61
2022/11/23 16:19:48;;;;;;;;;;;24.70;42.20;;;;;;4903115;28;44727;-60
2022/11/23 16:22:27;;;;;;;;;;;24.50;42.40;;;;;;4885169;29;45133;-60
2022/11/23 16:25:00;;;;;;;;;;;24.40;42.60;;;;;;4899363;28;45331;-61
2022/11/23 16:27:26;;;;;;;;;;;24.30;42.90;;;;;;4877745;29;45212;-62
2022/11/23 16:29:52;;;;;;;;;;;24.20;43.00;;;;;;4898442;28;45430;-59
2022/11/23 16:32:23;;;;;;;;;;;24.10;43.20;;;;;;4883461;29;45354;-60
2022/11/23 16:34:48;;;;;;;;;;;24.00;43.40;;;;;;4894934;28;46366;-60
2022/11/23 16:37:14;;;;;;;;;;;23.90;43.50;;;;;;4901481;28;45108;-63
2022/11/23 16:39:39;;;;;;;;;;;23.80;43.60;;;;;;4897477;29;45282;-62
2022/11/23 16:42:05;;;;;;;;;;;23.70;43.70;;;;;;4897716;28;46189;-62
2022/11/23 16:44:30;;;;;;;;;;;23.60;43.90;;;;;;4900663;29;45204;-59
2022/11/23 16:47:01;;;;;;;;;;;23.50;44.00;;;;;;4899600;28;45200;-58
2022/11/23 16:49:26;;;;;;;;;;;23.50;44.10;;;;;;4882475;29;44952;-66
2022/11/23 16:51:53;;;;;;;;;;;23.40;44.20;;;;;;4895228;28;45156;-62
2022/11/23 16:54:19;;;;;;;;;;;23.30;44.30;;;;;;4899914;28;45316;-62
2022/11/23 16:56:45;;;;;;;;;;;23.30;44.40;;;;;;4884690;28;45229;-62
2022/11/23 16:59:14;;;;;;;;;;;23.20;44.50;;;;;;4903347;29;44860;-61
2022/11/23 17:01:42;;;;;;;;;;;23.10;44.50;;;;;;4881479;28;45351;-62
2022/11/23 17:04:08;;;;;;;;;;;23.10;44.60;;;;;;4877695;29;46098;-62
2022/11/23 17:06:33;;;;;;;;;;;23.00;44.80;;;;;;4898803;28;44685;-61
2022/11/23 17:09:00;;;;;;;;;;;22.90;44.90;;;;;;4903501;28;45561;-61
2022/11/23 17:11:25;;;;;;;;;;;22.90;45.00;;;;;;4902989;28;45467;-60
2022/11/23 17:13:52;;;;;;;;;;;22.80;45.00;;;;;;4904491;28;45847;-61
2022/11/23 17:16:18;;;;;;;;;;;22.70;45.00;;;;;;4888284;29;45315;-60
2022/11/23 17:18:44;;;;;;;;;;;22.70;45.20;;;;;;4884216;29;45743;-62
2022/11/23 17:21:09;;;;;;;;;;;22.60;45.20;;;;;;4901092;28;45128;-62
2022/11/23 17:23:35;;;;;;;;;;;22.50;45.20;;;;;;4898488;28;46089;-61
2022/11/23 17:26:02;;;;;;;;;;;22.50;45.40;;;;;;4900231;28;46191;-60
2022/11/23 17:28:27;;;;;;;;;;;22.40;45.40;;;;;;4875525;29;46030;-60
2022/11/23 17:30:53;;;;;;;;;;;22.40;45.50;;;;;;4898842;28;44890;-60
2022/11/23 17:33:19;;;;;;;;;;;22.30;45.60;;;;;;4899988;28;46233;-60
2022/11/23 17:35:44;;;;;;;;;;;22.30;45.50;;;;;;4889897;28;45861;-64
2022/11/23 17:38:13;;;;;;;;;;;22.20;45.60;;;;;;4896127;28;45409;-63
2022/11/23 17:40:39;;;;;;;;;;;22.20;45.70;;;;;;4882661;28;45338;-61
2022/11/23 17:43:04;;;;;;;;;;;22.10;45.80;;;;;;4899306;28;46146;-60
2022/11/23 17:45:30;;;;;;;;;;;22.00;45.80;;;;;;4898767;29;44753;-60
2022/11/23 17:47:55;;;;;;;;;;;22.00;45.80;;;;;;4880115;28;46395;-61
2022/11/23 17:50:22;;;;;;;;;;;21.90;45.90;;;;;;4896378;28;45681;-63
2022/11/23 17:52:47;;;;;;;;;;;21.90;46.00;;;;;;4894231;28;46082;-61
2022/11/23 17:55:13;;;;;;;;;;;21.90;46.10;;;;;;4898383;29;45090;-61
2022/11/23 17:57:39;;;;;;;;;;;21.80;46.10;;;;;;4895977;29;45303;-62
2022/11/23 18:00:06;;;;;;;;;;;21.80;46.20;;;;;;4895526;28;45559;-65
2022/11/23 18:02:31;;;;;;;;;;;21.70;46.20;;;;;;4896208;28;46590;-60
2022/11/23 18:04:57;;;;;;;;;;;21.70;46.30;;;;;;4899889;28;45187;-63
2022/11/23 18:07:22;;;;;;;;;;;21.60;46.50;;;;;;4896178;28;45573;-59
2022/11/23 18:09:49;;;;;;;;;;;21.60;46.60;;;;;;4896339;28;45265;-62
2022/11/23 18:12:14;;;;;;;;;;;21.50;46.60;;;;;;4897805;29;45063;-63
2022/11/23 18:14:40;;;;;;;;;;;21.40;46.80;;;;;;4895698;28;45338;-62
2022/11/23 18:17:05;;;;;;;;;;;21.40;46.80;;;;;;4897358;29;45510;-61
2022/11/23 18:19:31;;;;;;;;;;;21.40;46.80;;;;;;4898848;28;45569;-63